sensor_id;sensor_type;location;lat;lon;timestamp;pressure;altitude;pressure_sealevel;temperature;humidity
55733;BME280;41637;52.364;9.910;2023-08-06T00:01:47;100060.20;;;14.79;100.00
55733;BME280;41637;52.364;9.910;2023-08-06T00:04:14;100058.34;;;14.81;100.00
55733;BME280;41637;52.364;9.910;2023-08-06T00:06:44;100062.89;;;14.82;100.00
55733;BME280;41637;52.364;9.910;2023-08-06T00:09:10;100055.30;;;14.85;100.00
55733;BME280;41637;52.364;9.910;2023-08-06T00:11:38;100054.44;;;14.86;100.00
55733;BME280;41637;52.364;9.910;2023-08-06T00:14:04;100052.16;;;14.86;100.00
55733;BME280;41637;52.364;9.910;2023-08-06T00:16:31;100047.64;;;14.88;100.00
55733;BME280;41637;52.364;9.910;2023-08-06T00:18:58;100043.23;;;14.89;100.00
55733;BME280;41637;52.364;9.910;2023-08-06T00:21:25;100039.82;;;14.88;100.00
55733;BME280;41637;52.364;9.910;2023-08-06T00:23:52;100032.35;;;14.88;100.00
55733;BME280;41637;52.364;9.910;2023-08-06T00:26:19;100024.61;;;14.90;100.00
55733;BME280;41637;52.364;9.910;2023-08-06T00:28:46;100026.73;;;14.93;100.00
55733;BME280;41637;52.364;9.910;2023-08-06T00:31:13;100019.31;;;14.95;100.00
55733;BME280;41637;52.364;9.910;2023-08-06T00:33:40;100023.77;;;14.96;100.00
55733;BME280;41637;52.364;9.910;2023-08-06T00:36:07;100020.00;;;14.96;100.00
55733;BME280;41637;52.364;9.910;2023-08-06T00:38:33;100017.61;;;14.97;100.00
55733;BME280;41637;52.364;9.910;2023-08-06T00:41:00;100012.42;;;14.93;100.00
55733;BME280;41637;52.364;9.910;2023-08-06T00:43:27;100000.55;;;14.93;100.00
55733;BME280;41637;52.364;9.910;2023-08-06T00:45:54;99995.16;;;14.93;100.00
55733;BME280;41637;52.364;9.910;2023-08-06T00:48:21;99992.18;;;14.95;100.00
55733;BME280;41637;52.364;9.910;2023-08-06T00:50:48;99988.23;;;14.93;100.00
55733;BME280;41637;52.364;9.910;2023-08-06T00:53:15;99979.45;;;14.92;100.00
55733;BME280;41637;52.364;9.910;2023-08-06T00:55:44;99971.14;;;14.92;100.00
55733;BME280;41637;52.364;9.910;2023-08-06T00:58:11;99969.89;;;14.91;100.00
55733;BME280;41637;52.364;9.910;2023-08-06T01:00:39;99969.03;;;14.89;100.00
55733;BME280;41637;52.364;9.910;2023-08-06T01:03:06;99972.71;;;14.87;100.00
55733;BME280;41637;52.364;9.910;2023-08-06T01:05:33;99970.09;;;14.87;100.00
55733;BME280;41637;52.364;9.910;2023-08-06T01:11:44;99962.36;;;14.83;100.00
55733;BME280;41637;52.364;9.910;2023-08-06T01:17:23;99947.84;;;14.79;100.00
55733;BME280;41637;52.364;9.910;2023-08-06T01:19:50;99948.77;;;14.78;100.00
55733;BME280;41637;52.364;9.910;2023-08-06T01:22:17;99952.64;;;14.76;100.00
55733;BME280;41637;52.364;9.910;2023-08-06T01:24:48;99952.06;;;14.72;100.00
55733;BME280;41637;52.364;9.910;2023-08-06T01:27:34;99953.95;;;14.70;100.00
55733;BME280;41637;52.364;9.910;2023-08-06T01:32:35;99953.98;;;14.66;100.00
55733;BME280;41637;52.364;9.910;2023-08-06T01:35:05;99955.92;;;14.65;100.00
55733;BME280;41637;52.364;9.910;2023-08-06T01:37:32;99950.36;;;14.66;100.00
55733;BME280;41637;52.364;9.910;2023-08-06T01:39:59;99949.06;;;14.69;100.00
55733;BME280;41637;52.364;9.910;2023-08-06T01:42:26;99941.88;;;14.73;100.00
55733;BME280;41637;52.364;9.910;2023-08-06T01:44:53;99938.04;;;14.74;100.00
55733;BME280;41637;52.364;9.910;2023-08-06T01:47:19;99935.38;;;14.78;100.00
55733;BME280;41637;52.364;9.910;2023-08-06T01:49:46;99932.94;;;14.79;100.00
55733;BME280;41637;52.364;9.910;2023-08-06T01:52:13;99931.76;;;14.82;100.00
55733;BME280;41637;52.364;9.910;2023-08-06T01:54:40;99931.09;;;14.84;100.00
55733;BME280;41637;52.364;9.910;2023-08-06T01:57:07;99930.11;;;14.84;100.00
55733;BME280;41637;52.364;9.910;2023-08-06T01:59:34;99922.23;;;14.83;100.00
55733;BME280;41637;52.364;9.910;2023-08-06T02:02:01;99918.09;;;14.81;100.00
55733;BME280;41637;52.364;9.910;2023-08-06T02:04:28;99914.09;;;14.79;100.00
55733;BME280;41637;52.364;9.910;2023-08-06T02:06:58;99911.13;;;14.75;100.00
55733;BME280;41637;52.364;9.910;2023-08-06T02:09:24;99908.89;;;14.71;100.00
55733;BME280;41637;52.364;9.910;2023-08-06T02:11:51;99908.27;;;14.66;100.00
55733;BME280;41637;52.364;9.910;2023-08-06T02:14:19;99910.85;;;14.63;100.00
55733;BME280;41637;52.364;9.910;2023-08-06T02:16:45;99912.73;;;14.58;100.00
55733;BME280;41637;52.364;9.910;2023-08-06T02:19:12;99911.48;;;14.55;100.00
55733;BME280;41637;52.364;9.910;2023-08-06T02:21:40;99909.30;;;14.50;100.00
55733;BME280;41637;52.364;9.910;2023-08-06T02:24:07;99908.63;;;14.47;100.00
55733;BME280;41637;52.364;9.910;2023-08-06T02:26:34;99904.61;;;14.43;100.00
55733;BME280;41637;52.364;9.910;2023-08-06T02:29:01;99904.19;;;14.40;100.00
55733;BME280;41637;52.364;9.910;2023-08-06T02:31:28;99907.59;;;14.36;100.00
55733;BME280;41637;52.364;9.910;2023-08-06T02:33:55;99909.52;;;14.31;100.00
55733;BME280;41637;52.364;9.910;2023-08-06T02:36:22;99908.35;;;14.27;100.00
55733;BME280;41637;52.364;9.910;2023-08-06T02:38:48;99907.52;;;14.25;100.00
55733;BME280;41637;52.364;9.910;2023-08-06T02:41:16;99904.12;;;14.22;100.00
55733;BME280;41637;52.364;9.910;2023-08-06T02:43:43;99905.20;;;14.21;100.00
55733;BME280;41637;52.364;9.910;2023-08-06T02:46:09;99906.77;;;14.20;100.00
55733;BME280;41637;52.364;9.910;2023-08-06T02:48:37;99905.59;;;14.18;100.00
55733;BME280;41637;52.364;9.910;2023-08-06T02:51:04;99900.72;;;14.18;100.00
55733;BME280;41637;52.364;9.910;2023-08-06T02:53:30;99892.42;;;14.18;100.00
55733;BME280;41637;52.364;9.910;2023-08-06T02:55:58;99886.20;;;14.21;100.00
55733;BME280;41637;52.364;9.910;2023-08-06T02:58:25;99880.01;;;14.22;100.00
55733;BME280;41637;52.364;9.910;2023-08-06T03:01:05;99871.48;;;14.23;100.00
55733;BME280;41637;52.364;9.910;2023-08-06T03:03:34;99868.04;;;14.23;100.00
55733;BME280;41637;52.364;9.910;2023-08-06T03:06:00;99864.12;;;14.26;100.00
55733;BME280;41637;52.364;9.910;2023-08-06T03:08:28;99859.35;;;14.28;100.00
55733;BME280;41637;52.364;9.910;2023-08-06T03:10:54;99856.13;;;14.30;100.00
55733;BME280;41637;52.364;9.910;2023-08-06T03:13:21;99854.84;;;14.30;100.00
55733;BME280;41637;52.364;9.910;2023-08-06T03:15:56;99852.50;;;14.30;100.00
55733;BME280;41637;52.364;9.910;2023-08-06T03:18:23;99848.52;;;14.28;100.00
55733;BME280;41637;52.364;9.910;2023-08-06T03:20:50;99850.08;;;14.26;100.00
55733;BME280;41637;52.364;9.910;2023-08-06T03:23:17;99843.17;;;14.27;100.00
55733;BME280;41637;52.364;9.910;2023-08-06T03:25:44;99835.42;;;14.28;100.00
55733;BME280;41637;52.364;9.910;2023-08-06T03:28:11;99830.31;;;14.29;100.00
55733;BME280;41637;52.364;9.910;2023-08-06T03:30:38;99823.33;;;14.31;100.00
55733;BME280;41637;52.364;9.910;2023-08-06T03:33:05;99822.30;;;14.30;100.00
55733;BME280;41637;52.364;9.910;2023-08-06T03:35:32;99816.25;;;14.29;100.00
55733;BME280;41637;52.364;9.910;2023-08-06T03:37:59;99817.86;;;14.27;100.00
55733;BME280;41637;52.364;9.910;2023-08-06T03:40:26;99820.41;;;14.27;100.00
55733;BME280;41637;52.364;9.910;2023-08-06T03:42:53;99824.67;;;14.27;100.00
55733;BME280;41637;52.364;9.910;2023-08-06T03:45:20;99829.59;;;14.27;100.00
55733;BME280;41637;52.364;9.910;2023-08-06T03:47:47;99830.93;;;14.28;100.00
55733;BME280;41637;52.364;9.910;2023-08-06T03:50:14;99827.70;;;14.27;100.00
55733;BME280;41637;52.364;9.910;2023-08-06T03:52:41;99821.48;;;14.25;100.00
55733;BME280;41637;52.364;9.910;2023-08-06T03:55:08;99820.75;;;14.25;100.00
55733;BME280;41637;52.364;9.910;2023-08-06T03:57:34;99821.37;;;14.25;100.00
55733;BME280;41637;52.364;9.910;2023-08-06T04:00:02;99823.77;;;14.27;100.00
55733;BME280;41637;52.364;9.910;2023-08-06T04:02:30;99820.64;;;14.28;100.00
55733;BME280;41637;52.364;9.910;2023-08-06T04:04:57;99817.01;;;14.30;100.00
55733;BME280;41637;52.364;9.910;2023-08-06T04:07:25;99817.51;;;14.33;100.00
55733;BME280;41637;52.364;9.910;2023-08-06T04:09:58;99814.14;;;14.35;100.00
55733;BME280;41637;52.364;9.910;2023-08-06T04:12:25;99815.48;;;14.38;100.00
55733;BME280;41637;52.364;9.910;2023-08-06T04:14:52;99814.84;;;14.41;100.00
55733;BME280;41637;52.364;9.910;2023-08-06T04:17:20;99819.97;;;14.47;100.00
55733;BME280;41637;52.364;9.910;2023-08-06T04:19:51;99815.79;;;14.48;100.00
55733;BME280;41637;52.364;9.910;2023-08-06T04:22:19;99819.35;;;14.49;100.00
55733;BME280;41637;52.364;9.910;2023-08-06T04:24:46;99824.80;;;14.50;100.00
55733;BME280;41637;52.364;9.910;2023-08-06T04:27:15;99823.42;;;14.52;100.00
55733;BME280;41637;52.364;9.910;2023-08-06T04:29:42;99823.94;;;14.54;100.00
55733;BME280;41637;52.364;9.910;2023-08-06T04:32:09;99822.22;;;14.57;100.00
55733;BME280;41637;52.364;9.910;2023-08-06T04:34:37;99814.80;;;14.59;100.00
55733;BME280;41637;52.364;9.910;2023-08-06T04:37:04;99812.41;;;14.59;100.00
55733;BME280;41637;52.364;9.910;2023-08-06T04:39:31;99815.71;;;14.59;100.00
55733;BME280;41637;52.364;9.910;2023-08-06T04:41:58;99817.97;;;14.61;100.00
55733;BME280;41637;52.364;9.910;2023-08-06T04:44:25;99817.70;;;14.64;100.00
55733;BME280;41637;52.364;9.910;2023-08-06T04:46:52;99820.82;;;14.67;100.00
55733;BME280;41637;52.364;9.910;2023-08-06T04:49:22;99817.98;;;14.69;100.00
55733;BME280;41637;52.364;9.910;2023-08-06T04:51:48;99822.40;;;14.73;100.00
55733;BME280;41637;52.364;9.910;2023-08-06T04:54:16;99824.71;;;14.79;100.00
55733;BME280;41637;52.364;9.910;2023-08-06T04:56:42;99823.50;;;14.84;100.00
55733;BME280;41637;52.364;9.910;2023-08-06T04:59:09;99818.45;;;14.88;100.00
55733;BME280;41637;52.364;9.910;2023-08-06T05:01:36;99818.16;;;14.91;100.00
55733;BME280;41637;52.364;9.910;2023-08-06T05:04:03;99815.59;;;14.93;100.00
55733;BME280;41637;52.364;9.910;2023-08-06T05:06:30;99816.74;;;14.96;100.00
55733;BME280;41637;52.364;9.910;2023-08-06T05:08:57;99813.79;;;15.01;100.00
55733;BME280;41637;52.364;9.910;2023-08-06T05:11:24;99807.84;;;15.04;100.00
55733;BME280;41637;52.364;9.910;2023-08-06T05:13:51;99808.81;;;15.11;100.00
55733;BME280;41637;52.364;9.910;2023-08-06T05:16:18;99807.09;;;15.14;100.00
55733;BME280;41637;52.364;9.910;2023-08-06T05:18:44;99806.14;;;15.15;100.00
55733;BME280;41637;52.364;9.910;2023-08-06T05:21:12;99804.44;;;15.19;100.00
55733;BME280;41637;52.364;9.910;2023-08-06T05:23:39;99805.29;;;15.23;100.00
55733;BME280;41637;52.364;9.910;2023-08-06T05:26:06;99808.41;;;15.26;100.00
55733;BME280;41637;52.364;9.910;2023-08-06T05:28:33;99809.08;;;15.25;100.00
55733;BME280;41637;52.364;9.910;2023-08-06T05:31:04;99811.36;;;15.26;100.00
55733;BME280;41637;52.364;9.910;2023-08-06T05:33:31;99807.79;;;15.26;100.00
55733;BME280;41637;52.364;9.910;2023-08-06T05:35:58;99806.41;;;15.25;100.00
55733;BME280;41637;52.364;9.910;2023-08-06T05:38:25;99805.17;;;15.25;100.00
55733;BME280;41637;52.364;9.910;2023-08-06T05:40:52;99809.20;;;15.25;100.00
55733;BME280;41637;52.364;9.910;2023-08-06T05:43:18;99807.23;;;15.24;100.00
55733;BME280;41637;52.364;9.910;2023-08-06T05:45:45;99804.59;;;15.23;100.00
55733;BME280;41637;52.364;9.910;2023-08-06T05:48:15;99810.99;;;15.23;100.00
55733;BME280;41637;52.364;9.910;2023-08-06T05:50:42;99812.05;;;15.26;100.00
55733;BME280;41637;52.364;9.910;2023-08-06T05:53:09;99811.03;;;15.30;100.00
55733;BME280;41637;52.364;9.910;2023-08-06T05:55:36;99810.14;;;15.31;100.00
55733;BME280;41637;52.364;9.910;2023-08-06T05:58:02;99813.46;;;15.34;100.00
55733;BME280;41637;52.364;9.910;2023-08-06T06:00:29;99818.91;;;15.35;100.00
55733;BME280;41637;52.364;9.910;2023-08-06T06:02:56;99819.69;;;15.36;100.00
55733;BME280;41637;52.364;9.910;2023-08-06T06:05:23;99815.34;;;15.35;100.00
55733;BME280;41637;52.364;9.910;2023-08-06T06:07:50;99810.52;;;15.36;100.00
55733;BME280;41637;52.364;9.910;2023-08-06T06:10:17;99808.96;;;15.37;100.00
55733;BME280;41637;52.364;9.910;2023-08-06T06:12:44;99811.45;;;15.44;100.00
55733;BME280;41637;52.364;9.910;2023-08-06T06:15:10;99808.88;;;15.53;100.00
55733;BME280;41637;52.364;9.910;2023-08-06T06:17:38;99804.63;;;15.58;100.00
55733;BME280;41637;52.364;9.910;2023-08-06T06:20:05;99804.26;;;15.61;100.00
55733;BME280;41637;52.364;9.910;2023-08-06T06:22:32;99805.04;;;15.66;100.00
55733;BME280;41637;52.364;9.910;2023-08-06T06:24:59;99803.05;;;15.67;100.00
55733;BME280;41637;52.364;9.910;2023-08-06T06:27:26;99805.29;;;15.68;100.00
55733;BME280;41637;52.364;9.910;2023-08-06T06:29:53;99802.70;;;15.71;100.00
55733;BME280;41637;52.364;9.910;2023-08-06T06:32:21;99798.98;;;15.74;100.00
55733;BME280;41637;52.364;9.910;2023-08-06T06:34:48;99797.25;;;15.79;100.00
55733;BME280;41637;52.364;9.910;2023-08-06T06:37:15;99796.93;;;15.86;100.00
55733;BME280;41637;52.364;9.910;2023-08-06T06:39:42;99802.52;;;15.90;100.00
55733;BME280;41637;52.364;9.910;2023-08-06T06:42:09;99793.17;;;15.95;100.00
55733;BME280;41637;52.364;9.910;2023-08-06T06:44:36;99787.23;;;16.02;100.00
55733;BME280;41637;52.364;9.910;2023-08-06T06:47:03;99782.77;;;16.10;100.00
55733;BME280;41637;52.364;9.910;2023-08-06T06:49:30;99786.27;;;16.19;100.00
55733;BME280;41637;52.364;9.910;2023-08-06T06:51:57;99788.45;;;16.25;100.00
55733;BME280;41637;52.364;9.910;2023-08-06T06:54:24;99787.92;;;16.36;100.00
55733;BME280;41637;52.364;9.910;2023-08-06T06:56:51;99790.31;;;16.47;100.00
55733;BME280;41637;52.364;9.910;2023-08-06T06:59:17;99793.48;;;16.61;100.00
55733;BME280;41637;52.364;9.910;2023-08-06T07:01:44;99787.73;;;16.73;100.00
55733;BME280;41637;52.364;9.910;2023-08-06T07:04:11;99787.44;;;16.78;100.00
55733;BME280;41637;52.364;9.910;2023-08-06T07:06:38;99782.09;;;16.84;100.00
55733;BME280;41637;52.364;9.910;2023-08-06T07:09:05;99778.31;;;16.95;100.00
55733;BME280;41637;52.364;9.910;2023-08-06T07:11:32;99779.70;;;17.05;100.00
55733;BME280;41637;52.364;9.910;2023-08-06T07:13:59;99773.79;;;17.17;100.00
55733;BME280;41637;52.364;9.910;2023-08-06T07:16:26;99773.69;;;17.27;100.00
55733;BME280;41637;52.364;9.910;2023-08-06T07:18:54;99774.05;;;17.35;100.00
55733;BME280;41637;52.364;9.910;2023-08-06T07:21:21;99776.50;;;17.38;100.00
55733;BME280;41637;52.364;9.910;2023-08-06T07:23:48;99774.82;;;17.42;100.00
55733;BME280;41637;52.364;9.910;2023-08-06T07:26:18;99772.27;;;17.47;100.00
55733;BME280;41637;52.364;9.910;2023-08-06T07:28:45;99771.76;;;17.51;100.00
55733;BME280;41637;52.364;9.910;2023-08-06T07:31:11;99772.33;;;17.57;100.00
55733;BME280;41637;52.364;9.910;2023-08-06T07:33:38;99765.44;;;17.62;100.00
55733;BME280;41637;52.364;9.910;2023-08-06T07:36:10;99764.55;;;17.68;100.00
55733;BME280;41637;52.364;9.910;2023-08-06T07:38:37;99764.09;;;17.73;100.00
55733;BME280;41637;52.364;9.910;2023-08-06T07:41:04;99759.80;;;17.77;100.00
55733;BME280;41637;52.364;9.910;2023-08-06T07:43:31;99762.24;;;17.81;100.00
55733;BME280;41637;52.364;9.910;2023-08-06T07:45:59;99764.27;;;17.85;100.00
55733;BME280;41637;52.364;9.910;2023-08-06T07:48:28;99765.69;;;17.91;100.00
55733;BME280;41637;52.364;9.910;2023-08-06T07:50:55;99769.05;;;17.95;100.00
55733;BME280;41637;52.364;9.910;2023-08-06T07:53:23;99766.46;;;18.04;100.00
55733;BME280;41637;52.364;9.910;2023-08-06T07:55:53;99769.68;;;18.15;100.00
55733;BME280;41637;52.364;9.910;2023-08-06T07:58:21;99768.94;;;18.24;100.00
55733;BME280;41637;52.364;9.910;2023-08-06T08:00:47;99767.49;;;18.34;100.00
55733;BME280;41637;52.364;9.910;2023-08-06T08:03:15;99765.09;;;18.43;100.00
55733;BME280;41637;52.364;9.910;2023-08-06T08:05:43;99765.07;;;18.49;100.00
55733;BME280;41637;52.364;9.910;2023-08-06T08:08:10;99763.71;;;18.58;100.00
55733;BME280;41637;52.364;9.910;2023-08-06T08:10:37;99765.31;;;18.70;100.00
55733;BME280;41637;52.364;9.910;2023-08-06T08:13:05;99761.34;;;18.83;100.00
55733;BME280;41637;52.364;9.910;2023-08-06T08:15:32;99761.88;;;18.89;100.00
55733;BME280;41637;52.364;9.910;2023-08-06T08:17:59;99761.76;;;19.03;100.00
55733;BME280;41637;52.364;9.910;2023-08-06T08:20:27;99762.29;;;19.18;100.00
55733;BME280;41637;52.364;9.910;2023-08-06T08:22:59;99760.67;;;19.29;100.00
55733;BME280;41637;52.364;9.910;2023-08-06T08:25:27;99758.42;;;19.37;100.00
55733;BME280;41637;52.364;9.910;2023-08-06T08:27:57;99759.70;;;19.47;100.00
55733;BME280;41637;52.364;9.910;2023-08-06T08:30:24;99758.78;;;19.55;100.00
55733;BME280;41637;52.364;9.910;2023-08-06T08:32:52;99758.46;;;19.67;100.00
55733;BME280;41637;52.364;9.910;2023-08-06T08:35:19;99758.29;;;19.78;100.00
55733;BME280;41637;52.364;9.910;2023-08-06T08:37:46;99759.77;;;19.93;100.00
55733;BME280;41637;52.364;9.910;2023-08-06T08:40:14;99749.38;;;20.10;100.00
55733;BME280;41637;52.364;9.910;2023-08-06T08:42:42;99749.96;;;20.18;100.00
55733;BME280;41637;52.364;9.910;2023-08-06T08:45:15;99746.52;;;20.29;100.00
55733;BME280;41637;52.364;9.910;2023-08-06T08:47:42;99744.30;;;20.40;100.00
55733;BME280;41637;52.364;9.910;2023-08-06T08:50:14;99738.05;;;20.40;100.00
55733;BME280;41637;52.364;9.910;2023-08-06T08:52:42;99739.42;;;20.45;100.00
55733;BME280;41637;52.364;9.910;2023-08-06T08:55:14;99735.70;;;20.55;100.00
55733;BME280;41637;52.364;9.910;2023-08-06T08:57:41;99737.56;;;20.62;100.00
55733;BME280;41637;52.364;9.910;2023-08-06T09:00:08;99738.52;;;20.70;100.00
55733;BME280;41637;52.364;9.910;2023-08-06T09:02:37;99737.02;;;20.78;100.00
55733;BME280;41637;52.364;9.910;2023-08-06T09:05:05;99737.95;;;20.87;100.00
55733;BME280;41637;52.364;9.910;2023-08-06T09:07:35;99737.92;;;20.97;100.00
55733;BME280;41637;52.364;9.910;2023-08-06T09:10:04;99735.77;;;20.99;100.00
55733;BME280;41637;52.364;9.910;2023-08-06T09:12:32;99734.09;;;21.00;100.00
55733;BME280;41637;52.364;9.910;2023-08-06T09:14:58;99736.16;;;21.11;100.00
55733;BME280;41637;52.364;9.910;2023-08-06T09:17:25;99732.55;;;21.27;100.00
55733;BME280;41637;52.364;9.910;2023-08-06T09:19:52;99733.11;;;21.38;100.00
55733;BME280;41637;52.364;9.910;2023-08-06T09:22:19;99731.67;;;21.50;100.00
55733;BME280;41637;52.364;9.910;2023-08-06T09:24:46;99733.21;;;21.61;100.00
55733;BME280;41637;52.364;9.910;2023-08-06T09:27:14;99731.38;;;21.77;100.00
55733;BME280;41637;52.364;9.910;2023-08-06T09:29:42;99729.70;;;21.97;100.00
55733;BME280;41637;52.364;9.910;2023-08-06T09:32:09;99730.06;;;22.22;100.00
55733;BME280;41637;52.364;9.910;2023-08-06T09:34:39;99726.40;;;22.48;100.00
55733;BME280;41637;52.364;9.910;2023-08-06T09:37:08;99726.70;;;22.66;100.00
55733;BME280;41637;52.364;9.910;2023-08-06T09:39:35;99729.25;;;22.83;100.00
55733;BME280;41637;52.364;9.910;2023-08-06T09:42:02;99734.84;;;22.96;98.71
55733;BME280;41637;52.364;9.910;2023-08-06T09:44:31;99734.52;;;22.94;97.74
55733;BME280;41637;52.364;9.910;2023-08-06T09:47:00;99737.24;;;23.03;96.76
55733;BME280;41637;52.364;9.910;2023-08-06T09:49:28;99735.59;;;23.16;96.75
55733;BME280;41637;52.364;9.910;2023-08-06T09:51:55;99732.00;;;23.35;98.03
55733;BME280;41637;52.364;9.910;2023-08-06T09:54:23;99728.23;;;23.45;95.88
55733;BME280;41637;52.364;9.910;2023-08-06T09:56:57;99726.91;;;23.47;96.35
55733;BME280;41637;52.364;9.910;2023-08-06T09:59:23;99728.72;;;23.56;97.21
55733;BME280;41637;52.364;9.910;2023-08-06T10:01:51;99727.92;;;23.54;94.73
55733;BME280;41637;52.364;9.910;2023-08-06T10:04:20;99724.61;;;23.60;96.27
55733;BME280;41637;52.364;9.910;2023-08-06T10:06:53;99722.49;;;23.72;95.82
55733;BME280;41637;52.364;9.910;2023-08-06T10:09:20;99722.38;;;23.82;96.75
55733;BME280;41637;52.364;9.910;2023-08-06T10:11:50;99720.36;;;24.04;98.38
55733;BME280;41637;52.364;9.910;2023-08-06T10:14:24;99719.07;;;24.26;95.94
55733;BME280;41637;52.364;9.910;2023-08-06T10:16:53;99717.34;;;24.51;96.02
55733;BME280;41637;52.364;9.910;2023-08-06T10:19:21;99711.80;;;24.77;93.15
55733;BME280;41637;52.364;9.910;2023-08-06T10:24:47;99702.75;;;24.77;78.90
55733;BME280;41637;52.364;9.910;2023-08-06T10:30:28;99696.13;;;24.57;73.55
55733;BME280;41637;52.364;9.910;2023-08-06T10:32:56;99695.01;;;24.49;72.22
55733;BME280;41637;52.364;9.910;2023-08-06T10:38:14;99685.57;;;24.42;71.08
55733;BME280;41637;52.364;9.910;2023-08-06T10:41:01;99683.59;;;24.55;72.18
55733;BME280;41637;52.364;9.910;2023-08-06T10:43:36;99688.42;;;24.69;67.32
55733;BME280;41637;52.364;9.910;2023-08-06T10:46:11;99684.55;;;24.79;66.23
55733;BME280;41637;52.364;9.910;2023-08-06T10:48:42;99682.16;;;24.96;66.38
55733;BME280;41637;52.364;9.910;2023-08-06T10:51:13;99682.94;;;25.08;63.47
55733;BME280;41637;52.364;9.910;2023-08-06T10:53:48;99677.94;;;25.15;62.62
55733;BME280;41637;52.364;9.910;2023-08-06T10:56:22;99670.67;;;25.30;61.49
55733;BME280;41637;52.364;9.910;2023-08-06T10:58:50;99666.99;;;25.29;59.16
55733;BME280;41637;52.364;9.910;2023-08-06T11:01:18;99673.17;;;25.15;57.37
55733;BME280;41637;52.364;9.910;2023-08-06T11:07:33;99668.60;;;24.85;55.91
55733;BME280;41637;52.364;9.910;2023-08-06T11:10:11;99658.69;;;24.85;56.56
55733;BME280;41637;52.364;9.910;2023-08-06T11:12:39;99659.21;;;24.93;55.93
55733;BME280;41637;52.364;9.910;2023-08-06T11:15:07;99663.27;;;25.03;55.84
55733;BME280;41637;52.364;9.910;2023-08-06T11:17:34;99661.66;;;25.15;55.83
55733;BME280;41637;52.364;9.910;2023-08-06T11:20:03;99655.77;;;25.35;56.70
55733;BME280;41637;52.364;9.910;2023-08-06T11:22:30;99653.27;;;25.47;54.74
55733;BME280;41637;52.364;9.910;2023-08-06T11:24:57;99655.11;;;25.52;53.35
55733;BME280;41637;52.364;9.910;2023-08-06T11:27:26;99650.88;;;25.52;52.48
55733;BME280;41637;52.364;9.910;2023-08-06T11:29:52;99647.88;;;25.68;52.01
55733;BME280;41637;52.364;9.910;2023-08-06T11:32:19;99645.15;;;25.94;53.03
55733;BME280;41637;52.364;9.910;2023-08-06T11:34:46;99644.52;;;26.25;53.55
55733;BME280;41637;52.364;9.910;2023-08-06T11:37:12;99641.67;;;26.52;53.53
55733;BME280;41637;52.364;9.910;2023-08-06T11:39:46;99636.18;;;26.67;52.57
55733;BME280;41637;52.364;9.910;2023-08-06T11:42:13;99633.08;;;26.75;52.97
55733;BME280;41637;52.364;9.910;2023-08-06T11:44:40;99636.60;;;26.84;52.58
55733;BME280;41637;52.364;9.910;2023-08-06T11:47:13;99637.38;;;26.84;50.94
55733;BME280;41637;52.364;9.910;2023-08-06T11:52:19;99638.35;;;26.82;50.64
55733;BME280;41637;52.364;9.910;2023-08-06T11:54:47;99638.65;;;26.90;49.61
55733;BME280;41637;52.364;9.910;2023-08-06T11:57:15;99636.05;;;27.04;49.79
55733;BME280;41637;52.364;9.910;2023-08-06T11:59:44;99631.91;;;27.36;50.57
55733;BME280;41637;52.364;9.910;2023-08-06T12:02:11;99628.04;;;27.52;49.09
55733;BME280;41637;52.364;9.910;2023-08-06T12:04:59;99630.09;;;27.64;47.51
55733;BME280;41637;52.364;9.910;2023-08-06T12:07:31;99625.48;;;27.75;47.13
55733;BME280;41637;52.364;9.910;2023-08-06T12:09:58;99621.19;;;27.75;45.21
55733;BME280;41637;52.364;9.910;2023-08-06T12:12:25;99618.42;;;27.96;46.07
55733;BME280;41637;52.364;9.910;2023-08-06T12:14:52;99616.52;;;28.39;44.80
55733;BME280;41637;52.364;9.910;2023-08-06T12:17:19;99617.29;;;28.88;44.64
55733;BME280;41637;52.364;9.910;2023-08-06T12:19:46;99608.89;;;29.35;41.74
55733;BME280;41637;52.364;9.910;2023-08-06T12:22:14;99611.27;;;29.68;41.51
55733;BME280;41637;52.364;9.910;2023-08-06T12:24:44;99610.85;;;29.83;39.78
55733;BME280;41637;52.364;9.910;2023-08-06T12:27:12;99606.92;;;29.82;39.62
55733;BME280;41637;52.364;9.910;2023-08-06T12:29:44;99604.38;;;29.95;40.73
55733;BME280;41637;52.364;9.910;2023-08-06T12:32:11;99600.02;;;30.31;40.66
55733;BME280;41637;52.364;9.910;2023-08-06T12:34:39;99600.73;;;30.65;39.78
55733;BME280;41637;52.364;9.910;2023-08-06T12:37:19;99599.48;;;30.58;38.65
55733;BME280;41637;52.364;9.910;2023-08-06T12:39:46;99605.50;;;30.61;38.91
55733;BME280;41637;52.364;9.910;2023-08-06T12:42:13;99601.75;;;30.85;37.72
55733;BME280;41637;52.364;9.910;2023-08-06T12:44:39;99605.20;;;30.98;36.74
55733;BME280;41637;52.364;9.910;2023-08-06T12:47:07;99603.60;;;31.06;35.83
55733;BME280;41637;52.364;9.910;2023-08-06T12:49:34;99604.05;;;31.17;36.51
55733;BME280;41637;52.364;9.910;2023-08-06T12:52:01;99604.48;;;31.33;37.21
55733;BME280;41637;52.364;9.910;2023-08-06T12:54:28;99606.62;;;31.42;36.73
55733;BME280;41637;52.364;9.910;2023-08-06T12:56:55;99606.27;;;31.13;36.00
55733;BME280;41637;52.364;9.910;2023-08-06T12:59:22;99605.05;;;30.81;37.52
55733;BME280;41637;52.364;9.910;2023-08-06T13:01:49;99607.14;;;30.50;37.26
55733;BME280;41637;52.364;9.910;2023-08-06T13:04:16;99600.85;;;30.22;38.11
55733;BME280;41637;52.364;9.910;2023-08-06T13:06:48;99604.98;;;29.91;38.23
55733;BME280;41637;52.364;9.910;2023-08-06T13:09:16;99604.70;;;29.72;38.25
55733;BME280;41637;52.364;9.910;2023-08-06T13:11:42;99604.44;;;29.54;38.59
55733;BME280;41637;52.364;9.910;2023-08-06T13:14:13;99605.91;;;29.33;38.54
55733;BME280;41637;52.364;9.910;2023-08-06T13:16:42;99605.48;;;29.11;38.95
55733;BME280;41637;52.364;9.910;2023-08-06T13:19:09;99603.02;;;28.94;39.28
55733;BME280;41637;52.364;9.910;2023-08-06T13:24:07;99602.42;;;28.28;39.59